sensor_id;sensor_type;location;lat;lon;timestamp;P1;durP1;ratioP1;P2;durP2;ratioP2
71916;SDS011;59793;46.506;6.674;2023-05-29T00:20:20;7.90;;;4.32;;
71916;SDS011;59793;46.506;6.674;2023-05-29T00:28:00;10.80;;;4.63;;
71916;SDS011;59793;46.506;6.674;2023-05-29T00:30:32;8.65;;;4.22;;
71916;SDS011;59793;46.506;6.674;2023-05-29T00:33:04;7.75;;;4.07;;
71916;SDS011;59793;46.506;6.674;2023-05-29T00:38:26;7.18;;;4.35;;
71916;SDS011;59793;46.506;6.674;2023-05-29T00:40:54;6.30;;;4.07;;
71916;SDS011;59793;46.506;6.674;2023-05-29T00:43:22;7.20;;;4.13;;
71916;SDS011;59793;46.506;6.674;2023-05-29T00:48:31;12.02;;;4.60;;
71916;SDS011;59793;46.506;6.674;2023-05-29T00:51:00;6.75;;;4.20;;
71916;SDS011;59793;46.506;6.674;2023-05-29T01:01:41;14.40;;;4.40;;
71916;SDS011;59793;46.506;6.674;2023-05-29T01:04:08;7.03;;;4.38;;
71916;SDS011;59793;46.506;6.674;2023-05-29T01:06:42;9.85;;;4.43;;
71916;SDS011;59793;46.506;6.674;2023-05-29T01:09:21;7.90;;;4.13;;
71916;SDS011;59793;46.506;6.674;2023-05-29T01:11:53;9.75;;;3.70;;
71916;SDS011;59793;46.506;6.674;2023-05-29T01:18:19;8.00;;;4.13;;
71916;SDS011;59793;46.506;6.674;2023-05-29T01:21:33;14.68;;;4.82;;
71916;SDS011;59793;46.506;6.674;2023-05-29T01:27:12;9.15;;;4.68;;
71916;SDS011;59793;46.506;6.674;2023-05-29T01:29:44;10.98;;;4.53;;
71916;SDS011;59793;46.506;6.674;2023-05-29T01:32:26;14.48;;;5.32;;
71916;SDS011;59793;46.506;6.674;2023-05-29T01:34:53;7.32;;;4.20;;
71916;SDS011;59793;46.506;6.674;2023-05-29T01:37:56;7.38;;;4.32;;
71916;SDS011;59793;46.506;6.674;2023-05-29T01:40:50;8.68;;;4.22;;
71916;SDS011;59793;46.506;6.674;2023-05-29T01:43:53;8.25;;;4.05;;
71916;SDS011;59793;46.506;6.674;2023-05-29T01:46:34;16.05;;;4.70;;
71916;SDS011;59793;46.506;6.674;2023-05-29T01:49:16;10.00;;;4.50;;
71916;SDS011;59793;46.506;6.674;2023-05-29T01:52:29;8.63;;;4.43;;
71916;SDS011;59793;46.506;6.674;2023-05-29T01:55:21;11.38;;;4.47;;
71916;SDS011;59793;46.506;6.674;2023-05-29T02:05:28;8.20;;;4.80;;
71916;SDS011;59793;46.506;6.674;2023-05-29T02:13:08;7.70;;;4.68;;
71916;SDS011;59793;46.506;6.674;2023-05-29T02:15:34;11.20;;;4.65;;
71916;SDS011;59793;46.506;6.674;2023-05-29T02:20:36;9.88;;;4.65;;
71916;SDS011;59793;46.506;6.674;2023-05-29T02:39:33;11.27;;;5.00;;
71916;SDS011;59793;46.506;6.674;2023-05-29T02:42:02;9.98;;;4.68;;
71916;SDS011;59793;46.506;6.674;2023-05-29T02:59:55;8.40;;;4.60;;
71916;SDS011;59793;46.506;6.674;2023-05-29T03:02:23;11.20;;;4.50;;
71916;SDS011;59793;46.506;6.674;2023-05-29T03:04:49;10.90;;;4.25;;
71916;SDS011;59793;46.506;6.674;2023-05-29T03:45:10;42.22;;;7.03;;
71916;SDS011;59793;46.506;6.674;2023-05-29T03:47:38;13.88;;;6.38;;
71916;SDS011;59793;46.506;6.674;2023-05-29T03:50:07;8.98;;;5.20;;
71916;SDS011;59793;46.506;6.674;2023-05-29T11:28:19;10.32;;;6.03;;
71916;SDS011;59793;46.506;6.674;2023-05-29T11:30:53;9.02;;;5.68;;
71916;SDS011;59793;46.506;6.674;2023-05-29T11:33:58;13.35;;;6.55;;
71916;SDS011;59793;46.506;6.674;2023-05-29T11:36:51;16.42;;;6.43;;
71916;SDS011;59793;46.506;6.674;2023-05-29T11:39:43;11.48;;;6.47;;
71916;SDS011;59793;46.506;6.674;2023-05-29T11:42:11;13.85;;;6.30;;
71916;SDS011;59793;46.506;6.674;2023-05-29T11:47:21;17.17;;;6.97;;
71916;SDS011;59793;46.506;6.674;2023-05-29T11:50:19;10.57;;;6.00;;
71916;SDS011;59793;46.506;6.674;2023-05-29T11:53:18;10.70;;;6.68;;
71916;SDS011;59793;46.506;6.674;2023-05-29T11:59:16;10.35;;;5.57;;
71916;SDS011;59793;46.506;6.674;2023-05-29T12:01:46;10.57;;;6.47;;
71916;SDS011;59793;46.506;6.674;2023-05-29T12:04:16;12.88;;;5.82;;
71916;SDS011;59793;46.506;6.674;2023-05-29T12:06:46;12.70;;;6.78;;
71916;SDS011;59793;46.506;6.674;2023-05-29T12:09:31;10.05;;;6.47;;
71916;SDS011;59793;46.506;6.674;2023-05-29T12:15:16;12.45;;;5.43;;
71916;SDS011;59793;46.506;6.674;2023-05-29T12:17:54;10.32;;;5.00;;
71916;SDS011;59793;46.506;6.674;2023-05-29T12:20:23;9.82;;;5.53;;
71916;SDS011;59793;46.506;6.674;2023-05-29T12:28:11;11.20;;;5.35;;
71916;SDS011;59793;46.506;6.674;2023-05-29T12:51:27;10.80;;;5.65;;
71916;SDS011;59793;46.506;6.674;2023-05-29T12:53:54;8.20;;;4.97;;
71916;SDS011;59793;46.506;6.674;2023-05-29T12:56:25;12.07;;;5.32;;
71916;SDS011;59793;46.506;6.674;2023-05-29T13:01:17;11.40;;;5.32;;
71916;SDS011;59793;46.506;6.674;2023-05-29T13:06:10;8.63;;;4.80;;
71916;SDS011;59793;46.506;6.674;2023-05-29T13:08:35;8.55;;;4.57;;
71916;SDS011;59793;46.506;6.674;2023-05-29T13:11:01;6.75;;;4.43;;
71916;SDS011;59793;46.506;6.674;2023-05-29T13:13:27;10.35;;;4.18;;
71916;SDS011;59793;46.506;6.674;2023-05-29T13:15:52;10.10;;;5.20;;
71916;SDS011;59793;46.506;6.674;2023-05-29T13:18:17;9.30;;;4.57;;
71916;SDS011;59793;46.506;6.674;2023-05-29T13:20:43;10.13;;;4.77;;
71916;SDS011;59793;46.506;6.674;2023-05-29T13:23:08;6.50;;;3.77;;
71916;SDS011;59793;46.506;6.674;2023-05-29T13:25:34;5.55;;;3.60;;
71916;SDS011;59793;46.506;6.674;2023-05-29T13:28:00;9.38;;;4.50;;
71916;SDS011;59793;46.506;6.674;2023-05-29T13:30:26;10.43;;;3.85;;
71916;SDS011;59793;46.506;6.674;2023-05-29T13:32:52;8.68;;;4.00;;
71916;SDS011;59793;46.506;6.674;2023-05-29T13:35:17;12.55;;;4.03;;
71916;SDS011;59793;46.506;6.674;2023-05-29T13:37:43;7.95;;;3.65;;
71916;SDS011;59793;46.506;6.674;2023-05-29T13:40:09;9.82;;;4.05;;
71916;SDS011;59793;46.506;6.674;2023-05-29T13:42:58;8.50;;;4.05;;
71916;SDS011;59793;46.506;6.674;2023-05-29T13:45:25;7.43;;;4.40;;
71916;SDS011;59793;46.506;6.674;2023-05-29T13:47:54;11.60;;;4.07;;
71916;SDS011;59793;46.506;6.674;2023-05-29T13:50:20;11.45;;;4.53;;
71916;SDS011;59793;46.506;6.674;2023-05-29T13:52:48;10.38;;;4.00;;
71916;SDS011;59793;46.506;6.674;2023-05-29T13:55:13;8.90;;;3.70;;
71916;SDS011;59793;46.506;6.674;2023-05-29T13:57:39;7.75;;;4.80;;
71916;SDS011;59793;46.506;6.674;2023-05-29T14:00:05;6.55;;;3.70;;
71916;SDS011;59793;46.506;6.674;2023-05-29T14:04:56;7.35;;;4.20;;
71916;SDS011;59793;46.506;6.674;2023-05-29T14:07:21;5.77;;;3.73;;
71916;SDS011;59793;46.506;6.674;2023-05-29T14:09:48;7.00;;;4.18;;
71916;SDS011;59793;46.506;6.674;2023-05-29T14:12:14;6.68;;;4.30;;
71916;SDS011;59793;46.506;6.674;2023-05-29T14:14:40;8.80;;;5.45;;
71916;SDS011;59793;46.506;6.674;2023-05-29T14:17:13;7.45;;;4.53;;
71916;SDS011;59793;46.506;6.674;2023-05-29T15:02:18;11.63;;;5.38;;
71916;SDS011;59793;46.506;6.674;2023-05-29T15:04:49;7.38;;;5.07;;
71916;SDS011;59793;46.506;6.674;2023-05-29T15:07:21;8.45;;;5.30;;
71916;SDS011;59793;46.506;6.674;2023-05-29T15:12:14;8.73;;;4.88;;
71916;SDS011;59793;46.506;6.674;2023-05-29T15:14:45;8.35;;;4.85;;
71916;SDS011;59793;46.506;6.674;2023-05-29T15:17:10;9.27;;;5.40;;
71916;SDS011;59793;46.506;6.674;2023-05-29T15:19:37;8.63;;;5.10;;
71916;SDS011;59793;46.506;6.674;2023-05-29T15:22:10;8.48;;;4.80;;
71916;SDS011;59793;46.506;6.674;2023-05-29T15:24:37;8.90;;;5.35;;
71916;SDS011;59793;46.506;6.674;2023-05-29T15:27:02;10.15;;;5.28;;
71916;SDS011;59793;46.506;6.674;2023-05-29T15:29:32;8.80;;;5.25;;
71916;SDS011;59793;46.506;6.674;2023-05-29T15:32:01;8.73;;;5.18;;
71916;SDS011;59793;46.506;6.674;2023-05-29T15:34:28;12.73;;;5.32;;
71916;SDS011;59793;46.506;6.674;2023-05-29T15:36:54;8.73;;;5.28;;
71916;SDS011;59793;46.506;6.674;2023-05-29T15:39:20;9.35;;;5.15;;
71916;SDS011;59793;46.506;6.674;2023-05-29T15:41:46;11.90;;;4.85;;
71916;SDS011;59793;46.506;6.674;2023-05-29T15:44:12;10.35;;;5.15;;
71916;SDS011;59793;46.506;6.674;2023-05-29T15:46:38;7.22;;;4.40;;
71916;SDS011;59793;46.506;6.674;2023-05-29T15:49:05;7.85;;;4.72;;
71916;SDS011;59793;46.506;6.674;2023-05-29T15:53:58;10.73;;;4.88;;
71916;SDS011;59793;46.506;6.674;2023-05-29T15:56:24;10.63;;;5.03;;
71916;SDS011;59793;46.506;6.674;2023-05-29T15:58:53;11.65;;;4.88;;
71916;SDS011;59793;46.506;6.674;2023-05-29T16:01:19;8.48;;;5.70;;
71916;SDS011;59793;46.506;6.674;2023-05-29T16:03:44;9.77;;;4.88;;
71916;SDS011;59793;46.506;6.674;2023-05-29T16:06:10;13.05;;;5.18;;
71916;SDS011;59793;46.506;6.674;2023-05-29T16:08:35;6.05;;;4.20;;
71916;SDS011;59793;46.506;6.674;2023-05-29T16:11:01;7.83;;;4.77;;
71916;SDS011;59793;46.506;6.674;2023-05-29T16:13:28;7.32;;;5.07;;
71916;SDS011;59793;46.506;6.674;2023-05-29T16:15:58;6.63;;;4.30;;
71916;SDS011;59793;46.506;6.674;2023-05-29T16:20:53;12.07;;;4.45;;
71916;SDS011;59793;46.506;6.674;2023-05-29T16:23:19;11.20;;;5.05;;
71916;SDS011;59793;46.506;6.674;2023-05-29T16:25:44;6.15;;;4.45;;
71916;SDS011;59793;46.506;6.674;2023-05-29T16:28:10;10.55;;;5.07;;
71916;SDS011;59793;46.506;6.674;2023-05-29T16:30:37;11.30;;;4.63;;
71916;SDS011;59793;46.506;6.674;2023-05-29T16:33:05;8.20;;;4.60;;
71916;SDS011;59793;46.506;6.674;2023-05-29T16:35:37;10.45;;;4.70;;
71916;SDS011;59793;46.506;6.674;2023-05-29T16:38:05;7.82;;;4.22;;
71916;SDS011;59793;46.506;6.674;2023-05-29T16:40:36;13.20;;;4.70;;
71916;SDS011;59793;46.506;6.674;2023-05-29T16:43:02;9.70;;;4.63;;
71916;SDS011;59793;46.506;6.674;2023-05-29T16:45:29;6.43;;;4.38;;
71916;SDS011;59793;46.506;6.674;2023-05-29T16:47:58;9.10;;;4.05;;
71916;SDS011;59793;46.506;6.674;2023-05-29T16:50:25;7.85;;;4.88;;
71916;SDS011;59793;46.506;6.674;2023-05-29T16:52:51;10.43;;;5.15;;
71916;SDS011;59793;46.506;6.674;2023-05-29T16:55:17;8.25;;;5.00;;
71916;SDS011;59793;46.506;6.674;2023-05-29T16:57:42;6.47;;;4.00;;
71916;SDS011;59793;46.506;6.674;2023-05-29T17:00:08;7.50;;;4.97;;
71916;SDS011;59793;46.506;6.674;2023-05-29T17:02:34;10.55;;;4.70;;
71916;SDS011;59793;46.506;6.674;2023-05-29T17:05:00;10.03;;;5.57;;
71916;SDS011;59793;46.506;6.674;2023-05-29T17:07:25;7.73;;;4.87;;
71916;SDS011;59793;46.506;6.674;2023-05-29T17:09:51;14.40;;;5.10;;
71916;SDS011;59793;46.506;6.674;2023-05-29T17:12:20;12.85;;;5.50;;
71916;SDS011;59793;46.506;6.674;2023-05-29T17:14:45;12.23;;;4.95;;
71916;SDS011;59793;46.506;6.674;2023-05-29T17:17:10;6.97;;;4.63;;
71916;SDS011;59793;46.506;6.674;2023-05-29T17:19:36;8.57;;;5.23;;
71916;SDS011;59793;46.506;6.674;2023-05-29T17:22:01;8.93;;;4.90;;
71916;SDS011;59793;46.506;6.674;2023-05-29T17:26:53;10.90;;;4.95;;
71916;SDS011;59793;46.506;6.674;2023-05-29T17:29:18;6.57;;;4.33;;
71916;SDS011;59793;46.506;6.674;2023-05-29T17:31:44;11.10;;;5.20;;
71916;SDS011;59793;46.506;6.674;2023-05-29T17:34:09;8.25;;;5.25;;
71916;SDS011;59793;46.506;6.674;2023-05-29T17:36:35;19.75;;;5.88;;
71916;SDS011;59793;46.506;6.674;2023-05-29T17:39:01;10.90;;;4.90;;
71916;SDS011;59793;46.506;6.674;2023-05-29T17:41:27;8.43;;;5.53;;
71916;SDS011;59793;46.506;6.674;2023-05-29T17:43:54;9.10;;;5.45;;
71916;SDS011;59793;46.506;6.674;2023-05-29T17:46:21;11.98;;;5.53;;
71916;SDS011;59793;46.506;6.674;2023-05-29T17:48:46;8.95;;;4.97;;
71916;SDS011;59793;46.506;6.674;2023-05-29T17:51:12;8.05;;;4.85;;
71916;SDS011;59793;46.506;6.674;2023-05-29T17:53:39;9.90;;;5.05;;
71916;SDS011;59793;46.506;6.674;2023-05-29T17:56:05;14.60;;;5.00;;
71916;SDS011;59793;46.506;6.674;2023-05-29T17:58:30;7.38;;;5.03;;
71916;SDS011;59793;46.506;6.674;2023-05-29T18:00:56;8.60;;;4.80;;
71916;SDS011;59793;46.506;6.674;2023-05-29T18:03:21;7.40;;;4.63;;
71916;SDS011;59793;46.506;6.674;2023-05-29T18:05:47;12.53;;;5.33;;
71916;SDS011;59793;46.506;6.674;2023-05-29T18:08:12;9.38;;;5.03;;
71916;SDS011;59793;46.506;6.674;2023-05-29T18:10:38;15.87;;;5.43;;
71916;SDS011;59793;46.506;6.674;2023-05-29T18:13:03;10.07;;;4.93;;
71916;SDS011;59793;46.506;6.674;2023-05-29T18:15:29;8.03;;;5.03;;
71916;SDS011;59793;46.506;6.674;2023-05-29T18:17:54;10.23;;;6.10;;
71916;SDS011;59793;46.506;6.674;2023-05-29T18:20:20;10.90;;;5.63;;
71916;SDS011;59793;46.506;6.674;2023-05-29T18:22:48;11.88;;;5.43;;
71916;SDS011;59793;46.506;6.674;2023-05-29T18:25:14;6.87;;;4.67;;
71916;SDS011;59793;46.506;6.674;2023-05-29T18:27:41;9.15;;;5.15;;
71916;SDS011;59793;46.506;6.674;2023-05-29T18:30:08;8.65;;;5.40;;
71916;SDS011;59793;46.506;6.674;2023-05-29T18:32:36;9.05;;;5.40;;
71916;SDS011;59793;46.506;6.674;2023-05-29T18:35:02;8.75;;;6.00;;
71916;SDS011;59793;46.506;6.674;2023-05-29T18:37:29;8.90;;;5.30;;
71916;SDS011;59793;46.506;6.674;2023-05-29T18:39:55;8.35;;;5.18;;
71916;SDS011;59793;46.506;6.674;2023-05-29T18:42:21;8.55;;;4.85;;
71916;SDS011;59793;46.506;6.674;2023-05-29T18:44:46;6.53;;;4.57;;
71916;SDS011;59793;46.506;6.674;2023-05-29T18:47:13;9.00;;;4.78;;
71916;SDS011;59793;46.506;6.674;2023-05-29T18:49:41;7.95;;;5.38;;
71916;SDS011;59793;46.506;6.674;2023-05-29T18:52:06;7.63;;;5.15;;
71916;SDS011;59793;46.506;6.674;2023-05-29T18:54:33;7.77;;;4.83;;
71916;SDS011;59793;46.506;6.674;2023-05-29T18:56:59;10.88;;;5.80;;
71916;SDS011;59793;46.506;6.674;2023-05-29T18:59:24;16.73;;;6.20;;
71916;SDS011;59793;46.506;6.674;2023-05-29T19:01:50;6.70;;;4.83;;
71916;SDS011;59793;46.506;6.674;2023-05-29T19:04:15;8.95;;;5.88;;
71916;SDS011;59793;46.506;6.674;2023-05-29T19:06:42;6.73;;;4.90;;
71916;SDS011;59793;46.506;6.674;2023-05-29T19:09:07;7.55;;;5.00;;
71916;SDS011;59793;46.506;6.674;2023-05-29T19:39:52;12.23;;;4.78;;
71916;SDS011;59793;46.506;6.674;2023-05-29T19:43:04;8.32;;;4.95;;
71916;SDS011;59793;46.506;6.674;2023-05-29T19:47:57;7.18;;;4.45;;
71916;SDS011;59793;46.506;6.674;2023-05-29T19:50:25;9.88;;;5.45;;
71916;SDS011;59793;46.506;6.674;2023-05-29T19:52:52;8.90;;;5.03;;
71916;SDS011;59793;46.506;6.674;2023-05-29T19:57:45;10.23;;;4.45;;
71916;SDS011;59793;46.506;6.674;2023-05-29T20:00:13;6.72;;;5.07;;
71916;SDS011;59793;46.506;6.674;2023-05-29T20:02:40;9.85;;;5.30;;
71916;SDS011;59793;46.506;6.674;2023-05-29T20:05:06;10.40;;;4.57;;
71916;SDS011;59793;46.506;6.674;2023-05-29T20:07:34;14.45;;;4.93;;
71916;SDS011;59793;46.506;6.674;2023-05-29T20:10:04;12.10;;;6.30;;
71916;SDS011;59793;46.506;6.674;2023-05-29T20:12:30;10.20;;;5.00;;
71916;SDS011;59793;46.506;6.674;2023-05-29T20:14:56;12.65;;;4.80;;
71916;SDS011;59793;46.506;6.674;2023-05-29T20:17:22;8.60;;;4.60;;
71916;SDS011;59793;46.506;6.674;2023-05-29T20:20:16;13.20;;;5.78;;
71916;SDS011;59793;46.506;6.674;2023-05-29T20:22:42;12.52;;;4.95;;
71916;SDS011;59793;46.506;6.674;2023-05-29T20:25:08;7.20;;;4.30;;
71916;SDS011;59793;46.506;6.674;2023-05-29T20:27:37;7.30;;;4.72;;
71916;SDS011;59793;46.506;6.674;2023-05-29T20:30:03;9.20;;;4.77;;
71916;SDS011;59793;46.506;6.674;2023-05-29T20:32:29;10.18;;;4.57;;
71916;SDS011;59793;46.506;6.674;2023-05-29T20:34:55;8.40;;;5.20;;
71916;SDS011;59793;46.506;6.674;2023-05-29T20:37:21;6.93;;;4.47;;
71916;SDS011;59793;46.506;6.674;2023-05-29T20:39:48;10.43;;;4.65;;
71916;SDS011;59793;46.506;6.674;2023-05-29T20:44:41;7.78;;;4.85;;
71916;SDS011;59793;46.506;6.674;2023-05-29T20:47:18;8.65;;;4.00;;
71916;SDS011;59793;46.506;6.674;2023-05-29T20:49:44;8.93;;;4.43;;
71916;SDS011;59793;46.506;6.674;2023-05-29T20:52:10;6.13;;;4.27;;
71916;SDS011;59793;46.506;6.674;2023-05-29T20:54:35;8.77;;;4.67;;
71916;SDS011;59793;46.506;6.674;2023-05-29T20:57:00;9.37;;;4.10;;
71916;SDS011;59793;46.506;6.674;2023-05-29T20:59:26;6.53;;;4.13;;
71916;SDS011;59793;46.506;6.674;2023-05-29T21:01:52;8.88;;;4.85;;
71916;SDS011;59793;46.506;6.674;2023-05-29T21:04:18;7.05;;;4.75;;
71916;SDS011;59793;46.506;6.674;2023-05-29T21:06:44;11.87;;;4.47;;
71916;SDS011;59793;46.506;6.674;2023-05-29T21:09:10;6.95;;;4.53;;
71916;SDS011;59793;46.506;6.674;2023-05-29T21:11:36;8.23;;;4.00;;
71916;SDS011;59793;46.506;6.674;2023-05-29T21:14:03;7.05;;;4.20;;
71916;SDS011;59793;46.506;6.674;2023-05-29T21:16:33;13.32;;;4.80;;
71916;SDS011;59793;46.506;6.674;2023-05-29T21:18:58;5.43;;;4.07;;
71916;SDS011;59793;46.506;6.674;2023-05-29T21:21:24;7.23;;;4.17;;
71916;SDS011;59793;46.506;6.674;2023-05-29T21:23:51;7.30;;;4.72;;
71916;SDS011;59793;46.506;6.674;2023-05-29T21:26:18;9.60;;;4.22;;
71916;SDS011;59793;46.506;6.674;2023-05-29T21:28:45;8.35;;;4.75;;
71916;SDS011;59793;46.506;6.674;2023-05-29T21:31:13;11.37;;;4.13;;
71916;SDS011;59793;46.506;6.674;2023-05-29T21:33:41;7.78;;;4.22;;
71916;SDS011;59793;46.506;6.674;2023-05-29T21:38:42;7.65;;;4.57;;
71916;SDS011;59793;46.506;6.674;2023-05-29T21:41:13;12.27;;;5.50;;
71916;SDS011;59793;46.506;6.674;2023-05-29T21:43:40;10.57;;;4.40;;
71916;SDS011;59793;46.506;6.674;2023-05-29T21:46:07;9.50;;;4.15;;
71916;SDS011;59793;46.506;6.674;2023-05-29T21:48:35;8.45;;;4.28;;
71916;SDS011;59793;46.506;6.674;2023-05-29T21:51:01;7.07;;;4.18;;
71916;SDS011;59793;46.506;6.674;2023-05-29T21:53:27;9.48;;;3.88;;
71916;SDS011;59793;46.506;6.674;2023-05-29T21:55:53;7.57;;;3.97;;
71916;SDS011;59793;46.506;6.674;2023-05-29T21:58:18;10.70;;;4.43;;
71916;SDS011;59793;46.506;6.674;2023-05-29T22:00:45;7.72;;;4.13;;
71916;SDS011;59793;46.506;6.674;2023-05-29T22:03:16;7.28;;;4.13;;
71916;SDS011;59793;46.506;6.674;2023-05-29T22:05:43;9.50;;;4.40;;
71916;SDS011;59793;46.506;6.674;2023-05-29T22:08:09;10.20;;;4.10;;
71916;SDS011;59793;46.506;6.674;2023-05-29T22:10:35;12.37;;;4.27;;
71916;SDS011;59793;46.506;6.674;2023-05-29T22:13:00;5.70;;;4.03;;
71916;SDS011;59793;46.506;6.674;2023-05-29T22:15:30;6.13;;;3.85;;
71916;SDS011;59793;46.506;6.674;2023-05-29T22:17:55;9.07;;;4.40;;
71916;SDS011;59793;46.506;6.674;2023-05-29T22:20:22;7.45;;;3.75;;
71916;SDS011;59793;46.506;6.674;2023-05-29T22:22:53;8.85;;;4.60;;
71916;SDS011;59793;46.506;6.674;2023-05-29T22:25:19;12.27;;;4.33;;
71916;SDS011;59793;46.506;6.674;2023-05-29T22:27:45;8.20;;;4.45;;
71916;SDS011;59793;46.506;6.674;2023-05-29T22:30:11;7.17;;;4.00;;
71916;SDS011;59793;46.506;6.674;2023-05-29T22:32:37;11.70;;;4.07;;
71916;SDS011;59793;46.506;6.674;2023-05-29T22:35:06;6.93;;;4.40;;
71916;SDS011;59793;46.506;6.674;2023-05-29T22:37:32;9.43;;;3.67;;
71916;SDS011;59793;46.506;6.674;2023-05-29T22:40:53;10.68;;;4.47;;
71916;SDS011;59793;46.506;6.674;2023-05-29T22:43:19;8.67;;;4.00;;
71916;SDS011;59793;46.506;6.674;2023-05-29T22:45:44;12.30;;;4.47;;
71916;SDS011;59793;46.506;6.674;2023-05-29T22:48:10;7.30;;;4.37;;
71916;SDS011;59793;46.506;6.674;2023-05-29T22:50:35;10.70;;;4.17;;
71916;SDS011;59793;46.506;6.674;2023-05-29T22:53:01;5.90;;;3.57;;
71916;SDS011;59793;46.506;6.674;2023-05-29T22:55:26;9.13;;;4.27;;
71916;SDS011;59793;46.506;6.674;2023-05-29T22:57:52;6.50;;;3.43;;
71916;SDS011;59793;46.506;6.674;2023-05-29T23:00:21;6.00;;;3.67;;
71916;SDS011;59793;46.506;6.674;2023-05-29T23:02:48;7.28;;;4.40;;
71916;SDS011;59793;46.506;6.674;2023-05-29T23:05:15;9.52;;;3.67;;
71916;SDS011;59793;46.506;6.674;2023-05-29T23:07:40;10.33;;;4.10;;
71916;SDS011;59793;46.506;6.674;2023-05-29T23:10:07;5.82;;;3.47;;
71916;SDS011;59793;46.506;6.674;2023-05-29T23:12:34;10.75;;;3.95;;
71916;SDS011;59793;46.506;6.674;2023-05-29T23:15:00;6.90;;;3.80;;
71916;SDS011;59793;46.506;6.674;2023-05-29T23:17:25;6.50;;;4.07;;
71916;SDS011;59793;46.506;6.674;2023-05-29T23:19:52;10.40;;;3.97;;
71916;SDS011;59793;46.506;6.674;2023-05-29T23:22:18;8.70;;;3.80;;
71916;SDS011;59793;46.506;6.674;2023-05-29T23:24:43;5.50;;;3.77;;
71916;SDS011;59793;46.506;6.674;2023-05-29T23:27:09;8.87;;;4.13;;
71916;SDS011;59793;46.506;6.674;2023-05-29T23:29:35;7.53;;;3.78;;
71916;SDS011;59793;46.506;6.674;2023-05-29T23:32:01;5.45;;;3.85;;
71916;SDS011;59793;46.506;6.674;2023-05-29T23:34:27;9.07;;;4.20;;
71916;SDS011;59793;46.506;6.674;2023-05-29T23:36:53;5.68;;;3.58;;
71916;SDS011;59793;46.506;6.674;2023-05-29T23:39:19;6.40;;;3.83;;
71916;SDS011;59793;46.506;6.674;2023-05-29T23:41:45;9.30;;;3.58;;
71916;SDS011;59793;46.506;6.674;2023-05-29T23:44:12;5.68;;;3.92;;
71916;SDS011;59793;46.506;6.674;2023-05-29T23:46:37;7.93;;;3.80;;
71916;SDS011;59793;46.506;6.674;2023-05-29T23:49:03;6.88;;;3.85;;
71916;SDS011;59793;46.506;6.674;2023-05-29T23:51:31;6.20;;;3.72;;
71916;SDS011;59793;46.506;6.674;2023-05-29T23:53:59;8.00;;;3.38;;
71916;SDS011;59793;46.506;6.674;2023-05-29T23:56:25;8.07;;;4.10;;
71916;SDS011;59793;46.506;6.674;2023-05-29T23:58:52;7.93;;;3.90;;
